Time;durP1;ratioP1;P1;durP2;ratioP2;P2;SDS_P1;SDS_P2;PMS_P1;PMS_P2;Temp;Humidity;BMP_temperature;BMP_pressure;BME280_temperature;BME280_humidity;BME280_pressure;Samples;Min_cycle;Max_cycle;Signal;HPM_P1;HPM_P2
2024/02/21 07:19:58;;;;;;;2.67;1.20;;;9.20;99.90;;;;;;4916916;29;20239;-76
2024/02/21 07:22:25;;;;;;;2.07;1.60;;;9.20;99.90;;;;;;4918969;29;20216;-77
2024/02/21 07:24:52;;;;;;;1.97;1.30;;;9.30;99.90;;;;;;4918964;29;20237;-77
2024/02/21 07:27:19;;;;;;;4.87;1.57;;;9.30;99.90;;;;;;4919411;29;20216;-77
2024/02/21 07:29:48;;;;;;;2.37;1.20;;;9.30;99.90;;;;;;4919069;29;20300;-76
2024/02/21 07:32:15;;;;;;;3.60;1.63;;;9.20;99.90;;;;;;4918777;29;20216;-77
2024/02/21 07:34:43;;;;;;;3.70;1.67;;;9.10;99.90;;;;;;4919033;29;20244;-77
2024/02/21 07:37:11;;;;;;;2.07;1.43;;;9.20;99.90;;;;;;4919042;29;20209;-75
2024/02/21 07:39:38;;;;;;;7.90;2.10;;;9.20;99.90;;;;;;4928712;29;20643;-76
2024/02/21 07:42:06;;;;;;;2.57;1.40;;;9.10;99.90;;;;;;4934025;29;20577;-76
2024/02/21 07:44:34;;;;;;;8.17;1.90;;;9.10;99.90;;;;;;4919167;29;20604;-77
2024/02/21 07:47:01;;;;;;;5.87;1.80;;;9.10;99.90;;;;;;4918789;29;20292;-76
2024/02/21 07:49:28;;;;;;;5.00;2.07;;;9.10;99.90;;;;;;4918992;29;20280;-76
2024/02/21 07:51:55;;;;;;;5.93;1.70;;;9.20;99.90;;;;;;4914096;29;20643;-78
2024/02/21 07:54:23;;;;;;;7.20;2.00;;;9.20;99.90;;;;;;4922354;29;20803;-79
2024/02/21 07:56:50;;;;;;;6.57;1.87;;;9.10;99.90;;;;;;4919100;29;20229;-79
2024/02/21 07:59:17;;;;;;;7.00;1.90;;;9.20;99.90;;;;;;4912395;29;20677;-75
2024/02/21 08:01:45;;;;;;;3.30;1.87;;;9.20;99.90;;;;;;4916757;29;20293;-79
2024/02/21 08:04:12;;;;;;;4.00;1.20;;;9.30;99.90;;;;;;4916327;29;20213;-74
2024/02/21 08:06:39;;;;;;;3.50;1.53;;;9.40;99.90;;;;;;4917059;29;20316;-77
2024/02/21 08:09:06;;;;;;;3.37;1.53;;;9.40;99.90;;;;;;4917771;29;20301;-88
2024/02/21 08:11:34;;;;;;;3.50;1.87;;;9.50;99.90;;;;;;4916697;29;20237;-77
2024/02/21 08:14:01;;;;;;;3.20;1.40;;;9.50;99.90;;;;;;4916085;29;20320;-74
2024/02/21 08:16:28;;;;;;;4.53;1.60;;;9.50;99.90;;;;;;4916364;29;20368;-76
2024/02/21 08:18:55;;;;;;;3.27;1.43;;;9.50;99.90;;;;;;4916284;29;20313;-75
2024/02/21 08:21:21;;;;;;;7.03;2.13;;;9.60;99.90;;;;;;4916153;29;20300;-75
2024/02/21 08:23:51;;;;;;;3.17;1.23;;;9.50;99.90;;;;;;4916720;29;20308;-77
2024/02/21 08:26:18;;;;;;;3.03;1.47;;;9.50;99.90;;;;;;4916678;29;20604;-76
2024/02/21 08:28:46;;;;;;;3.63;1.70;;;9.40;99.90;;;;;;4915641;29;20233;-75
2024/02/21 08:31:19;;;;;;;3.87;1.50;;;9.40;99.90;;;;;;4917518;29;20625;-76
2024/02/21 08:33:47;;;;;;;1.90;1.20;;;9.40;99.90;;;;;;4899765;29;20349;-75
2024/02/21 08:36:19;;;;;;;2.10;1.33;;;9.50;99.90;;;;;;4900095;29;20322;-83
2024/02/21 08:38:45;;;;;;;3.67;1.27;;;9.50;99.90;;;;;;4905265;29;20216;-76
2024/02/21 08:41:13;;;;;;;2.47;1.40;;;9.40;99.90;;;;;;4915817;29;20241;-75
2024/02/21 08:43:39;;;;;;;2.60;1.00;;;9.50;99.90;;;;;;4915547;29;20676;-75
2024/02/21 08:46:08;;;;;;;3.93;1.73;;;9.60;99.90;;;;;;4916206;29;20263;-75
2024/02/21 08:48:35;;;;;;;3.27;1.47;;;9.70;99.90;;;;;;4916025;29;20640;-79
2024/02/21 08:51:02;;;;;;;4.53;1.73;;;9.70;99.90;;;;;;4914958;29;20205;-80
2024/02/21 08:53:29;;;;;;;3.73;1.17;;;9.70;99.90;;;;;;4915084;29;20230;-79
2024/02/21 08:55:56;;;;;;;2.57;1.17;;;9.60;99.90;;;;;;4917234;29;20237;-79
2024/02/21 08:58:25;;;;;;;5.07;1.27;;;9.60;99.90;;;;;;4917411;29;20201;-81
2024/02/21 09:00:52;;;;;;;2.50;1.63;;;9.60;99.90;;;;;;4917706;29;20235;-81
2024/02/21 09:03:20;;;;;;;4.00;1.50;;;9.60;99.90;;;;;;4918341;29;20545;-81
2024/02/21 09:05:47;;;;;;;2.97;1.43;;;9.50;99.90;;;;;;4918821;29;20229;-82
2024/02/21 09:08:14;;;;;;;3.73;1.30;;;9.70;99.90;;;;;;4917819;29;20218;-81
2024/02/21 09:10:41;;;;;;;3.17;1.20;;;9.80;99.90;;;;;;4917355;29;20575;-79
2024/02/21 09:13:08;;;;;;;3.90;1.07;;;9.80;99.90;;;;;;4917332;29;20245;-80
2024/02/21 09:15:35;;;;;;;6.70;1.17;;;9.80;99.90;;;;;;4917545;29;20566;-79
2024/02/21 09:18:02;;;;;;;5.60;1.10;;;9.70;99.90;;;;;;4917334;29;20694;-79
2024/02/21 09:20:31;;;;;;;3.20;1.30;;;9.70;99.90;;;;;;4917162;29;20206;-80
2024/02/21 09:22:59;;;;;;;2.40;1.13;;;9.70;99.90;;;;;;4917325;29;20316;-80
2024/02/21 09:25:26;;;;;;;4.87;1.10;;;9.80;99.90;;;;;;4917089;29;20226;-78
2024/02/21 09:27:55;;;;;;;2.57;1.03;;;9.70;99.90;;;;;;4917243;29;20213;-79
2024/02/21 09:30:22;;;;;;;1.60;1.00;;;9.70;99.90;;;;;;4917317;29;20300;-80
2024/02/21 09:32:48;;;;;;;4.80;1.23;;;9.90;99.90;;;;;;4917316;29;20304;-79
2024/02/21 09:35:15;;;;;;;3.60;1.17;;;10.00;99.90;;;;;;4917239;29;20264;-80
2024/02/21 09:37:44;;;;;;;5.00;1.33;;;10.00;99.90;;;;;;4917355;29;20323;-80
2024/02/21 09:40:11;;;;;;;3.77;1.40;;;10.10;99.90;;;;;;4917222;29;20252;-81
2024/02/21 09:42:40;;;;;;;2.77;1.20;;;10.10;99.90;;;;;;4916910;29;20296;-79
2024/02/21 09:45:11;;;;;;;3.27;1.27;;;10.20;99.90;;;;;;4917128;29;20329;-80
2024/02/21 09:47:51;;;;;;;2.10;1.30;;;10.30;99.90;;;;;;4919524;29;20296;-80
2024/02/21 09:50:21;;;;;;;2.53;1.07;;;10.30;99.90;;;;;;4928315;29;20212;-80
2024/02/21 09:52:50;;;;;;;3.90;1.20;;;10.40;99.90;;;;;;4928874;29;20213;-79
2024/02/21 09:55:18;;;;;;;2.73;1.10;;;10.50;99.90;;;;;;4930431;29;20264;-79
2024/02/21 09:57:46;;;;;;;1.80;1.00;;;10.50;99.90;;;;;;4920986;29;20699;-80
2024/02/21 10:00:21;;;;;;;2.30;0.93;;;10.60;99.90;;;;;;4916962;29;20637;-80
2024/02/21 10:02:48;;;;;;;2.17;1.27;;;10.60;99.90;;;;;;4919340;29;20212;-80
2024/02/21 10:05:15;;;;;;;4.73;1.30;;;10.80;99.90;;;;;;4920268;29;20270;-80
2024/02/21 10:07:42;;;;;;;4.00;1.07;;;10.60;99.90;;;;;;4920897;29;20251;-79
2024/02/21 10:10:11;;;;;;;2.13;1.53;;;10.70;99.90;;;;;;4920518;29;20657;-80
2024/02/21 10:12:49;;;;;;;1.40;0.80;;;10.70;99.90;;;;;;4920906;29;20221;-80
2024/02/21 10:15:22;;;;;;;2.50;1.03;;;10.80;99.90;;;;;;4920266;29;20233;-79
2024/02/21 10:17:49;;;;;;;5.60;1.70;;;10.60;99.90;;;;;;4920696;29;20213;-80
2024/02/21 10:20:16;;;;;;;3.23;1.27;;;10.70;99.90;;;;;;4920327;29;20210;-80
2024/02/21 10:22:43;;;;;;;2.03;1.00;;;10.70;99.90;;;;;;4921171;29;20216;-79
2024/02/21 10:25:12;;;;;;;1.63;0.80;;;10.80;99.90;;;;;;4920033;29;20320;-79
2024/02/21 10:27:40;;;;;;;3.37;1.10;;;10.80;99.90;;;;;;4920392;29;20668;-80
2024/02/21 10:30:09;;;;;;;3.40;1.10;;;10.80;99.90;;;;;;4920556;29;20288;-80
2024/02/21 10:32:36;;;;;;;4.23;1.13;;;10.80;99.90;;;;;;4920346;29;20220;-80
2024/02/21 10:35:04;;;;;;;1.73;1.13;;;10.90;99.90;;;;;;4919941;29;20336;-80
2024/02/21 10:37:32;;;;;;;2.27;0.83;;;10.90;99.90;;;;;;4920157;29;20232;-80
2024/02/21 10:39:59;;;;;;;3.97;1.10;;;10.90;99.90;;;;;;4920187;29;20216;-80
2024/02/21 10:42:31;;;;;;;6.67;1.00;;;11.00;99.90;;;;;;4920357;29;20304;-80
2024/02/21 10:45:04;;;;;;;2.13;0.90;;;11.20;99.90;;;;;;4920105;29;20597;-78
2024/02/21 10:47:33;;;;;;;2.57;0.70;;;11.30;99.90;;;;;;4919715;29;20692;-80
2024/02/21 10:50:04;;;;;;;3.30;1.10;;;11.30;99.90;;;;;;4920124;29;20241;-78
2024/02/21 10:52:46;;;;;;;3.03;1.10;;;11.20;99.90;;;;;;4920065;29;20213;-78
2024/02/21 10:55:20;;;;;;;2.07;1.10;;;11.10;99.90;;;;;;4919768;29;20237;-80
2024/02/21 10:57:50;;;;;;;1.60;1.00;;;11.10;99.90;;;;;;4919849;29;20213;-79
2024/02/21 11:00:19;;;;;;;3.03;1.00;;;11.20;99.90;;;;;;4919641;29;20220;-78
2024/02/21 11:02:46;;;;;;;2.80;0.67;;;11.20;99.90;;;;;;4919838;29;20233;-79
2024/02/21 11:05:14;;;;;;;1.23;0.77;;;11.30;99.90;;;;;;4919707;29;20312;-79
2024/02/21 11:07:42;;;;;;;1.83;0.90;;;11.30;99.90;;;;;;4919825;29;20297;-79
2024/02/21 11:10:23;;;;;;;1.87;0.80;;;11.40;99.90;;;;;;4919565;29;20221;-80
2024/02/21 11:12:54;;;;;;;2.73;0.80;;;11.50;99.90;;;;;;4919453;29;20671;-79
2024/02/21 11:15:26;;;;;;;2.10;0.70;;;11.60;99.90;;;;;;4918521;29;20245;-79
2024/02/21 11:17:56;;;;;;;2.10;0.70;;;11.60;99.90;;;;;;4919465;29;20306;-79
2024/02/21 11:20:34;;;;;;;2.73;0.90;;;11.50;99.90;;;;;;4919279;29;20617;-79
2024/02/21 11:23:01;;;;;;;2.30;0.70;;;11.50;99.90;;;;;;4919429;29;20705;-79
2024/02/21 11:25:30;;;;;;;1.90;0.80;;;11.60;99.90;;;;;;4919255;29;20253;-79
2024/02/21 11:28:07;;;;;;;0.93;0.60;;;11.50;99.90;;;;;;4919611;29;20210;-79
2024/02/21 11:30:37;;;;;;;3.33;0.97;;;11.40;99.90;;;;;;4919282;29;20209;-79
2024/02/21 11:33:07;;;;;;;2.03;0.70;;;11.40;99.90;;;;;;4919202;29;20221;-79
2024/02/21 11:35:34;;;;;;;1.57;0.70;;;11.50;99.90;;;;;;4918801;29;20238;-78
2024/02/21 11:38:14;;;;;;;3.40;0.80;;;11.70;99.90;;;;;;4919879;29;20668;-79
2024/02/21 11:40:42;;;;;;;2.97;0.67;;;11.60;99.90;;;;;;4919584;29;20209;-79
2024/02/21 11:43:10;;;;;;;0.90;0.50;;;11.40;99.90;;;;;;4919020;29;20213;-79
2024/02/21 11:45:37;;;;;;;1.60;0.70;;;11.30;99.90;;;;;;4918710;29;20316;-79
2024/02/21 11:48:07;;;;;;;1.43;0.80;;;11.40;99.90;;;;;;4919114;29;20210;-79
2024/02/21 11:50:35;;;;;;;4.83;0.87;;;11.40;99.90;;;;;;4919126;29;20248;-79
2024/02/21 11:53:02;;;;;;;3.00;0.87;;;11.40;99.90;;;;;;4919215;29;20232;-79
2024/02/21 11:55:30;;;;;;;2.37;0.90;;;11.30;99.90;;;;;;4925790;29;20242;-77
2024/02/21 11:57:56;;;;;;;2.20;0.80;;;11.20;99.90;;;;;;4919488;29;20256;-79
2024/02/21 12:00:27;;;;;;;5.03;0.60;;;11.10;99.90;;;;;;4934440;29;20214;-77
2024/02/21 12:02:55;;;;;;;3.50;0.70;;;10.90;99.90;;;;;;4925184;29;20240;-79
2024/02/21 12:05:22;;;;;;;0.97;0.70;;;10.80;99.90;;;;;;4918611;29;20230;-80
2024/02/21 12:07:49;;;;;;;3.13;0.80;;;10.80;99.90;;;;;;4918652;29;20221;-79
2024/02/21 12:10:16;;;;;;;4.27;0.90;;;10.80;99.90;;;;;;4918624;29;20300;-79
2024/02/21 12:12:43;;;;;;;3.80;0.83;;;10.80;99.90;;;;;;4918458;29;20272;-78
2024/02/21 12:15:10;;;;;;;1.47;0.87;;;10.80;99.90;;;;;;4918437;29;20312;-78
2024/02/21 12:17:38;;;;;;;4.47;1.00;;;10.80;99.90;;;;;;4918055;29;20300;-79
2024/02/21 12:20:08;;;;;;;5.73;1.37;;;10.90;99.90;;;;;;4918689;29;20221;-78
2024/02/21 12:22:37;;;;;;;6.73;0.90;;;10.90;99.90;;;;;;4919530;29;20304;-78
2024/02/21 12:25:07;;;;;;;2.50;1.00;;;10.90;99.90;;;;;;4919435;29;20666;-79
2024/02/21 12:27:34;;;;;;;2.83;1.43;;;10.80;99.90;;;;;;4918893;29;20209;-78
2024/02/21 12:30:01;;;;;;;2.80;1.00;;;10.90;99.90;;;;;;4918035;29;20205;-78
2024/02/21 12:32:28;;;;;;;4.43;0.70;;;11.10;99.90;;;;;;4917990;29;20300;-78
2024/02/21 12:34:56;;;;;;;1.20;0.90;;;11.10;99.90;;;;;;4928005;29;20257;-76
2024/02/21 12:37:24;;;;;;;3.07;0.90;;;11.00;99.90;;;;;;4918993;29;20281;-79
2024/02/21 12:39:51;;;;;;;2.77;0.90;;;11.00;99.90;;;;;;4917947;29;20232;-79
2024/02/21 12:42:18;;;;;;;1.30;0.90;;;11.00;99.90;;;;;;4917673;29;20637;-79
2024/02/21 12:44:45;;;;;;;2.23;0.93;;;11.10;99.90;;;;;;4917643;29;20594;-79
2024/02/21 12:47:12;;;;;;;2.67;1.20;;;11.10;99.90;;;;;;4917542;29;20661;-78
2024/02/21 12:49:39;;;;;;;4.63;1.23;;;11.10;99.90;;;;;;4917637;29;20217;-79
2024/02/21 12:52:08;;;;;;;4.47;1.00;;;11.20;99.90;;;;;;4917720;29;20216;-78
2024/02/21 12:54:35;;;;;;;3.67;0.90;;;11.30;99.90;;;;;;4917124;29;20233;-78
2024/02/21 12:57:02;;;;;;;1.93;1.10;;;11.30;99.90;;;;;;4917240;29;20240;-79
2024/02/21 12:59:30;;;;;;;3.20;1.43;;;11.30;99.90;;;;;;4917409;29;20213;-79
2024/02/21 13:01:57;;;;;;;3.33;1.60;;;11.10;99.90;;;;;;4917561;29;20213;-78
2024/02/21 13:04:24;;;;;;;2.17;0.83;;;11.20;99.90;;;;;;4917331;29;20237;-79
2024/02/21 13:06:51;;;;;;;2.53;1.00;;;11.20;99.90;;;;;;4917204;29;20731;-78
2024/02/21 13:09:19;;;;;;;3.80;1.47;;;11.10;99.90;;;;;;4917244;29;20736;-79
2024/02/21 13:11:46;;;;;;;4.57;0.97;;;11.20;99.90;;;;;;4917067;29;20252;-79
2024/02/21 13:14:13;;;;;;;2.67;1.30;;;11.10;99.90;;;;;;4917387;29;20642;-79
2024/02/21 13:16:40;;;;;;;1.83;0.97;;;11.20;99.90;;;;;;4917501;29;20344;-78
2024/02/21 13:19:08;;;;;;;3.00;0.73;;;11.30;99.90;;;;;;4917481;29;20661;-81
2024/02/21 13:21:35;;;;;;;1.40;0.87;;;11.30;99.90;;;;;;4917488;29;20543;-79
2024/02/21 13:24:03;;;;;;;1.13;0.80;;;11.20;99.90;;;;;;4916986;29;20213;-78
2024/02/21 13:26:31;;;;;;;2.83;1.00;;;11.30;99.90;;;;;;4916668;29;20228;-79
2024/02/21 13:28:58;;;;;;;3.20;0.83;;;11.20;99.90;;;;;;4916840;29;20664;-79
2024/02/21 13:31:25;;;;;;;3.57;1.07;;;11.20;99.90;;;;;;4916938;29;20694;-79
2024/02/21 13:33:52;;;;;;;2.27;1.10;;;11.20;99.90;;;;;;4916919;29;20209;-79
2024/02/21 13:36:19;;;;;;;6.17;1.50;;;11.10;99.90;;;;;;4916471;29;20237;-79
2024/02/21 13:38:47;;;;;;;3.07;1.30;;;11.10;99.90;;;;;;4916706;29;20209;-79
2024/02/21 13:41:14;;;;;;;2.37;0.93;;;11.10;99.90;;;;;;4916920;29;20322;-79
2024/02/21 13:43:42;;;;;;;3.50;1.40;;;11.10;99.90;;;;;;4916951;29;20646;-79
2024/02/21 13:46:11;;;;;;;2.27;1.20;;;11.10;99.90;;;;;;4916744;29;20271;-79
2024/02/21 13:48:38;;;;;;;5.43;1.67;;;11.20;99.90;;;;;;4916769;29;20593;-79
2024/02/21 13:51:05;;;;;;;5.30;1.20;;;11.20;99.90;;;;;;4916887;29;20237;-79
2024/02/21 13:53:34;;;;;;;4.20;1.30;;;11.10;99.90;;;;;;4916976;29;20292;-79
2024/02/21 13:56:00;;;;;;;1.93;1.20;;;11.00;99.90;;;;;;4916776;29;20251;-79
2024/02/21 13:58:27;;;;;;;3.77;1.40;;;10.90;99.90;;;;;;4916615;29;20736;-79
2024/02/21 14:00:56;;;;;;;2.60;1.20;;;10.80;99.90;;;;;;4916601;29;20686;-79
2024/02/21 14:03:23;;;;;;;3.53;1.20;;;10.70;99.90;;;;;;4917379;29;20565;-80
2024/02/21 14:05:51;;;;;;;4.73;1.20;;;10.60;99.90;;;;;;4916554;29;20253;-79
2024/02/21 14:08:17;;;;;;;2.90;1.00;;;10.60;99.90;;;;;;4916472;29;20210;-79
2024/02/21 14:10:44;;;;;;;1.77;1.00;;;10.50;99.90;;;;;;4916946;29;20300;-79
2024/02/21 14:13:11;;;;;;;2.40;1.57;;;10.60;99.90;;;;;;4916864;29;20241;-79
2024/02/21 14:15:40;;;;;;;2.10;1.00;;;10.60;99.90;;;;;;4916957;29;20241;-79
2024/02/21 14:18:10;;;;;;;1.60;1.07;;;10.70;99.90;;;;;;4916974;29;20228;-79
2024/02/21 14:20:37;;;;;;;1.77;0.80;;;10.70;99.90;;;;;;4920683;29;20245;-79
2024/02/21 14:23:04;;;;;;;2.50;0.80;;;10.70;99.90;;;;;;4920064;29;20214;-79
2024/02/21 14:25:31;;;;;;;2.00;1.30;;;10.60;99.90;;;;;;4919375;29;20233;-79
2024/02/21 14:27:58;;;;;;;4.77;1.37;;;10.40;99.90;;;;;;4918588;29;20300;-79
2024/02/21 14:30:25;;;;;;;4.40;1.10;;;10.40;99.90;;;;;;4916643;29;20245;-79
2024/02/21 14:32:52;;;;;;;1.87;0.77;;;10.30;99.90;;;;;;4916343;29;20695;-79
2024/02/21 14:35:20;;;;;;;3.33;1.13;;;10.20;99.90;;;;;;4916166;29;20233;-79
2024/02/21 14:37:48;;;;;;;2.37;1.27;;;10.20;99.90;;;;;;4916409;29;20210;-79
2024/02/21 14:40:15;;;;;;;1.97;1.03;;;10.20;99.90;;;;;;4916095;29;20665;-79
2024/02/21 14:42:42;;;;;;;4.40;1.30;;;10.10;99.90;;;;;;4916313;29;20209;-79
2024/02/21 14:45:10;;;;;;;1.77;0.97;;;10.10;99.90;;;;;;4916129;29;20233;-79
2024/02/21 14:47:37;;;;;;;1.90;1.00;;;10.00;99.90;;;;;;4915999;29;20242;-79
2024/02/21 14:50:05;;;;;;;3.33;1.17;;;10.00;99.90;;;;;;4918215;29;20691;-79
2024/02/21 14:52:34;;;;;;;3.73;1.40;;;10.00;99.90;;;;;;4919830;29;20218;-78
2024/02/21 14:55:02;;;;;;;3.73;1.60;;;9.90;99.90;;;;;;4919536;29;20230;-79
2024/02/21 14:57:29;;;;;;;2.20;1.50;;;9.90;99.90;;;;;;4919707;29;20214;-79
2024/02/21 14:59:58;;;;;;;5.37;1.33;;;9.80;99.90;;;;;;4919558;29;20213;-80
2024/02/21 15:02:27;;;;;;;4.97;1.43;;;9.80;99.90;;;;;;4919349;29;20262;-79
2024/02/21 15:04:54;;;;;;;2.73;1.43;;;9.70;99.90;;;;;;4919613;29;20226;-79
2024/02/21 15:07:23;;;;;;;2.33;1.30;;;9.70;99.90;;;;;;4919427;29;20704;-79
2024/02/21 15:09:52;;;;;;;2.07;1.07;;;9.60;99.90;;;;;;4919485;29;20214;-78
2024/02/21 15:12:19;;;;;;;1.73;0.83;;;9.60;99.90;;;;;;4919369;29;20252;-79
2024/02/21 15:14:45;;;;;;;3.13;1.17;;;9.60;99.90;;;;;;4919223;29;20316;-79
2024/02/21 15:17:13;;;;;;;3.97;1.93;;;9.60;99.90;;;;;;4919158;29;20328;-78
2024/02/21 15:19:43;;;;;;;2.10;1.30;;;9.50;99.90;;;;;;4919124;29;20221;-78
2024/02/21 15:22:12;;;;;;;3.50;1.27;;;9.50;99.90;;;;;;4919373;29;20205;-78
2024/02/21 15:24:39;;;;;;;3.93;1.40;;;9.40;99.90;;;;;;4918963;29;20574;-78
2024/02/21 15:27:08;;;;;;;4.63;1.43;;;9.40;99.90;;;;;;4918979;29;20787;-78
2024/02/21 15:29:35;;;;;;;5.20;0.90;;;9.50;99.90;;;;;;4918569;29;20343;-78
2024/02/21 15:32:02;;;;;;;3.43;1.57;;;9.60;99.90;;;;;;4918830;29;20566;-78
2024/02/21 15:34:30;;;;;;;4.23;1.40;;;9.60;99.90;;;;;;4918514;29;20720;-78
2024/02/21 15:36:57;;;;;;;5.37;1.60;;;9.50;99.90;;;;;;4918604;29;20233;-78
2024/02/21 15:39:26;;;;;;;2.97;1.13;;;9.50;99.90;;;;;;4918807;29;20220;-79
2024/02/21 15:41:53;;;;;;;3.63;1.27;;;9.50;99.90;;;;;;4918743;29;20300;-78
2024/02/21 15:44:22;;;;;;;3.67;1.50;;;9.40;99.90;;;;;;4918981;29;20209;-78
2024/02/21 15:46:49;;;;;;;2.30;1.27;;;9.40;99.90;;;;;;4918927;29;20293;-78
2024/02/21 15:49:17;;;;;;;3.87;1.43;;;9.40;99.90;;;;;;4918541;29;20625;-78
2024/02/21 15:51:44;;;;;;;3.57;1.47;;;9.40;99.90;;;;;;4918994;29;20293;-78
2024/02/21 15:54:11;;;;;;;1.87;1.07;;;9.40;99.90;;;;;;4918398;29;20245;-78
2024/02/21 15:56:39;;;;;;;2.23;1.13;;;9.40;99.90;;;;;;4918506;29;20329;-78
2024/02/21 15:59:05;;;;;;;2.87;1.00;;;9.40;99.90;;;;;;4918835;29;20573;-78
2024/02/21 16:01:35;;;;;;;5.90;1.20;;;9.50;99.90;;;;;;4918630;29;20664;-79
2024/02/21 16:04:02;;;;;;;2.97;1.13;;;9.40;99.90;;;;;;4919168;29;20222;-78
2024/02/21 16:06:29;;;;;;;1.27;1.00;;;9.30;99.90;;;;;;4937353;29;20210;-78
2024/02/21 16:08:56;;;;;;;2.33;1.40;;;9.30;99.90;;;;;;4941848;29;20268;-77
2024/02/21 16:11:23;;;;;;;3.87;1.50;;;9.20;99.90;;;;;;4937355;29;20205;-77
2024/02/21 16:13:49;;;;;;;2.33;1.37;;;9.20;99.90;;;;;;4918986;29;20245;-78
2024/02/21 16:16:16;;;;;;;3.60;1.10;;;9.20;99.90;;;;;;4938139;29;20264;-78
2024/02/21 16:18:46;;;;;;;3.80;1.43;;;9.10;99.90;;;;;;4941348;29;20218;-78
2024/02/21 16:21:14;;;;;;;3.10;1.47;;;9.10;99.90;;;;;;4932013;29;20205;-78
2024/02/21 16:23:41;;;;;;;3.17;0.97;;;9.10;99.90;;;;;;4918354;29;20320;-77
2024/02/21 16:26:10;;;;;;;2.33;1.10;;;9.10;99.90;;;;;;4918075;29;20233;-78
2024/02/21 16:28:38;;;;;;;2.37;1.03;;;9.10;99.90;;;;;;4917715;29;20209;-78
2024/02/21 16:31:05;;;;;;;3.03;1.27;;;9.10;99.90;;;;;;4917645;29;20209;-78
2024/02/21 16:33:32;;;;;;;1.73;1.20;;;9.20;99.90;;;;;;4917787;29;20253;-78
2024/02/21 16:36:02;;;;;;;3.30;1.30;;;9.20;99.90;;;;;;4917678;29;20319;-78
2024/02/21 16:38:29;;;;;;;1.93;1.43;;;9.10;99.90;;;;;;4917999;29;20285;-78
2024/02/21 16:40:55;;;;;;;3.77;1.10;;;9.20;99.90;;;;;;4918000;29;20216;-79
2024/02/21 16:43:22;;;;;;;3.67;1.30;;;9.20;99.90;;;;;;4917234;29;20296;-78
2024/02/21 16:45:50;;;;;;;4.47;1.30;;;9.10;99.90;;;;;;4917237;29;20320;-78
2024/02/21 16:48:18;;;;;;;3.37;1.33;;;9.20;99.90;;;;;;4917345;29;20265;-78
2024/02/21 16:50:45;;;;;;;3.57;1.30;;;9.10;99.90;;;;;;4917762;29;20621;-80
2024/02/21 16:53:13;;;;;;;3.17;1.70;;;9.10;99.90;;;;;;4917242;29;20546;-79
2024/02/21 16:55:40;;;;;;;2.47;1.40;;;9.20;99.90;;;;;;4916943;29;20312;-79
2024/02/21 16:58:08;;;;;;;3.50;1.13;;;9.20;99.90;;;;;;4917108;29;20212;-79
2024/02/21 17:00:38;;;;;;;2.10;1.20;;;9.10;99.90;;;;;;4917100;29;20545;-78
2024/02/21 17:03:05;;;;;;;2.57;1.20;;;9.20;99.90;;;;;;4917210;29;20210;-78
2024/02/21 17:05:32;;;;;;;3.17;1.50;;;9.10;99.90;;;;;;4916946;29;20558;-77
2024/02/21 17:07:59;;;;;;;5.53;1.63;;;9.10;99.90;;;;;;4917327;29;20210;-78
2024/02/21 17:10:27;;;;;;;1.87;1.20;;;9.10;99.90;;;;;;4917174;29;20304;-79
2024/02/21 17:12:54;;;;;;;1.80;0.93;;;9.20;99.90;;;;;;4916455;29;20220;-80
2024/02/21 17:15:21;;;;;;;2.97;0.93;;;9.10;99.90;;;;;;4916988;29;20236;-80
2024/02/21 17:17:48;;;;;;;1.80;0.83;;;9.20;99.90;;;;;;4916700;29;20735;-79
2024/02/21 17:20:16;;;;;;;2.17;1.20;;;9.10;99.90;;;;;;4917132;29;20704;-80
2024/02/21 17:22:43;;;;;;;1.90;1.00;;;9.10;99.90;;;;;;4916948;29;20268;-79
2024/02/21 17:25:10;;;;;;;4.83;1.53;;;9.10;99.90;;;;;;4916987;29;20261;-78
2024/02/21 17:27:38;;;;;;;1.93;1.30;;;9.10;99.90;;;;;;4917019;29;20212;-77
2024/02/21 17:30:08;;;;;;;4.10;1.43;;;9.20;99.90;;;;;;4916596;29;20209;-78
2024/02/21 17:32:35;;;;;;;1.57;1.30;;;9.10;99.90;;;;;;4916732;29;20206;-76
2024/02/21 17:35:04;;;;;;;2.97;1.20;;;9.10;99.90;;;;;;4916487;29;20272;-77
2024/02/21 17:37:33;;;;;;;1.77;1.17;;;9.10;99.90;;;;;;4916906;29;20585;-79
2024/02/21 17:40:00;;;;;;;6.70;1.83;;;9.20;99.90;;;;;;4916582;29;20213;-80
2024/02/21 17:42:27;;;;;;;2.07;1.13;;;9.20;99.90;;;;;;4916460;29;20638;-80
2024/02/21 17:44:55;;;;;;;1.63;1.10;;;9.10;99.90;;;;;;4916414;29;20717;-78
2024/02/21 17:47:22;;;;;;;1.93;0.93;;;9.20;99.90;;;;;;4916897;29;20277;-78
2024/02/21 17:49:50;;;;;;;2.07;1.10;;;9.20;99.90;;;;;;4916944;29;20210;-77
2024/02/21 17:52:17;;;;;;;1.83;1.03;;;9.20;99.90;;;;;;4916775;29;20256;-78
2024/02/21 17:54:47;;;;;;;1.97;1.00;;;9.10;99.90;;;;;;4916630;29;20245;-78
2024/02/21 17:57:13;;;;;;;1.87;0.97;;;9.10;99.90;;;;;;4916585;29;20252;-78
2024/02/21 17:59:41;;;;;;;1.53;0.90;;;9.10;99.90;;;;;;4916780;29;20240;-77
2024/02/21 18:02:10;;;;;;;1.37;1.03;;;9.20;99.90;;;;;;4916860;29;20297;-78
2024/02/21 18:04:37;;;;;;;1.50;1.03;;;9.20;99.90;;;;;;4916287;29;20225;-77
2024/02/21 18:07:04;;;;;;;3.10;0.73;;;9.20;99.90;;;;;;4916473;29;20305;-77
2024/02/21 18:09:34;;;;;;;2.23;0.70;;;9.20;99.90;;;;;;4916648;29;20653;-78
2024/02/21 18:12:01;;;;;;;2.07;1.20;;;9.20;99.90;;;;;;4916586;29;20700;-79
2024/02/21 18:14:27;;;;;;;2.60;0.90;;;9.20;99.90;;;;;;4919428;29;20210;-79
2024/02/21 18:16:54;;;;;;;2.50;0.90;;;9.30;99.90;;;;;;4919004;29;20320;-78
2024/02/21 18:19:23;;;;;;;1.53;0.80;;;9.30;99.90;;;;;;4916591;29;20221;-78
2024/02/21 18:21:50;;;;;;;1.30;0.73;;;9.30;99.90;;;;;;4916684;29;20645;-78
2024/02/21 18:24:16;;;;;;;1.73;0.80;;;9.30;99.90;;;;;;4919134;29;20210;-79
2024/02/21 18:26:43;;;;;;;1.70;0.90;;;9.30;99.90;;;;;;4920507;29;20308;-79
2024/02/21 18:29:10;;;;;;;1.10;0.80;;;9.40;99.90;;;;;;4919948;29;20300;-78
2024/02/21 18:31:38;;;;;;;0.93;0.73;;;9.40;99.90;;;;;;4920394;29;20252;-78
2024/02/21 18:34:04;;;;;;;0.77;0.60;;;9.40;99.90;;;;;;4920264;29;20572;-78
2024/02/21 18:36:33;;;;;;;0.97;0.60;;;9.40;99.90;;;;;;4919738;29;20677;-78
2024/02/21 18:38:59;;;;;;;2.77;0.90;;;9.40;99.90;;;;;;4919976;29;20304;-78
2024/02/21 18:41:26;;;;;;;1.13;0.83;;;9.30;99.90;;;;;;4920237;29;20280;-78
2024/02/21 18:43:53;;;;;;;3.30;0.77;;;9.30;99.90;;;;;;4919851;29;20304;-78
2024/02/21 18:46:21;;;;;;;1.80;0.90;;;9.30;99.90;;;;;;4920115;29;20233;-78
2024/02/21 18:48:47;;;;;;;0.87;0.63;;;9.30;99.90;;;;;;4919603;29;20206;-78
2024/02/21 18:51:14;;;;;;;1.20;0.60;;;9.30;99.90;;;;;;4919776;29;20296;-78
2024/02/21 18:53:43;;;;;;;1.30;0.60;;;9.30;99.90;;;;;;4919756;29;20237;-77
2024/02/21 18:56:11;;;;;;;1.80;1.23;;;9.40;99.90;;;;;;4919667;29;20320;-78
2024/02/21 18:58:38;;;;;;;1.30;0.63;;;9.40;99.90;;;;;;4919810;29;20241;-77
2024/02/21 19:01:05;;;;;;;1.60;0.67;;;9.40;99.90;;;;;;4919578;29;20629;-78
2024/02/21 19:03:32;;;;;;;1.57;0.93;;;9.30;99.90;;;;;;4919828;29;20206;-78
2024/02/21 19:05:59;;;;;;;3.70;1.07;;;9.30;99.90;;;;;;4919266;29;20776;-78
2024/02/21 19:08:26;;;;;;;1.00;0.60;;;9.40;99.90;;;;;;4919828;29;20213;-79
2024/02/21 19:10:54;;;;;;;0.70;0.60;;;9.30;99.90;;;;;;4919479;29;20696;-78
2024/02/21 19:13:21;;;;;;;1.10;0.50;;;9.40;99.90;;;;;;4919389;29;20252;-78
2024/02/21 19:15:48;;;;;;;0.90;0.60;;;9.40;99.90;;;;;;4908316;29;20230;-78
2024/02/21 19:18:15;;;;;;;1.13;0.63;;;9.40;99.90;;;;;;4900061;29;20273;-79
2024/02/21 19:20:42;;;;;;;1.33;0.80;;;9.40;99.90;;;;;;4912796;29;20576;-78
2024/02/21 19:23:09;;;;;;;4.27;0.97;;;9.40;99.90;;;;;;4918688;29;20294;-79
2024/02/21 19:25:35;;;;;;;1.23;0.80;;;9.40;99.90;;;;;;4908816;29;20237;-78
2024/02/21 19:28:04;;;;;;;0.87;0.53;;;9.40;99.90;;;;;;4918651;29;20302;-79
2024/02/21 19:30:31;;;;;;;2.03;0.57;;;9.40;99.90;;;;;;4918771;29;20214;-78
2024/02/21 19:32:58;;;;;;;0.97;0.50;;;9.40;99.90;;;;;;4905045;29;20301;-79
2024/02/21 19:35:25;;;;;;;0.70;0.40;;;9.40;99.90;;;;;;4914794;29;20305;-79
2024/02/21 19:37:52;;;;;;;1.23;0.70;;;9.50;99.90;;;;;;4918504;29;20332;-79
2024/02/21 19:40:19;;;;;;;0.73;0.50;;;9.50;99.90;;;;;;4918467;29;20293;-79
2024/02/21 19:42:46;;;;;;;1.63;0.50;;;9.50;99.90;;;;;;4918316;29;20300;-79
2024/02/21 19:45:14;;;;;;;2.83;0.57;;;9.50;99.90;;;;;;4916996;29;20719;-79
2024/02/21 19:47:43;;;;;;;0.60;0.43;;;9.50;99.90;;;;;;4909474;29;20225;-79
2024/02/21 19:50:14;;;;;;;0.73;0.60;;;9.50;99.90;;;;;;4917056;29;20212;-79
2024/02/21 19:52:42;;;;;;;1.20;0.60;;;9.50;99.90;;;;;;4918005;29;20229;-79
2024/02/21 19:55:09;;;;;;;1.10;0.60;;;9.50;99.90;;;;;;4918009;29;20229;-79
2024/02/21 19:57:37;;;;;;;2.07;0.70;;;9.50;99.90;;;;;;4917798;29;20265;-79
2024/02/21 20:00:05;;;;;;;1.10;0.60;;;9.50;99.90;;;;;;4918093;29;20214;-79
2024/02/21 20:02:34;;;;;;;1.17;0.50;;;9.50;99.90;;;;;;4918001;29;20646;-79
2024/02/21 20:05:01;;;;;;;1.00;0.50;;;9.60;99.90;;;;;;4917789;29;20321;-79
2024/02/21 20:07:28;;;;;;;0.80;0.60;;;9.50;99.90;;;;;;4925924;29;20227;-79
2024/02/21 20:09:55;;;;;;;0.50;0.50;;;9.50;99.90;;;;;;4928036;29;20681;-80
2024/02/21 20:12:25;;;;;;;0.50;0.40;;;9.50;99.90;;;;;;4921255;29;20213;-78
2024/02/21 20:14:53;;;;;;;1.50;0.40;;;9.50;99.90;;;;;;4917507;29;20589;-79